sensor_id;sensor_type;location;lat;lon;timestamp;temperature;humidity
10046;DHT22;5063;50.878;4.742;2024-02-21T00:00:47;9.70;99.90
10046;DHT22;5063;50.878;4.742;2024-02-21T00:03:13;9.70;99.90
10046;DHT22;5063;50.878;4.742;2024-02-21T00:05:39;9.60;99.90
10046;DHT22;5063;50.878;4.742;2024-02-21T00:08:05;9.60;99.90
10046;DHT22;5063;50.878;4.742;2024-02-21T00:10:31;9.60;99.90
10046;DHT22;5063;50.878;4.742;2024-02-21T00:12:59;9.60;99.90
10046;DHT22;5063;50.878;4.742;2024-02-21T00:15:25;9.60;99.90
10046;DHT22;5063;50.878;4.742;2024-02-21T00:17:51;9.60;99.90
10046;DHT22;5063;50.878;4.742;2024-02-21T00:20:17;9.60;99.90
10046;DHT22;5063;50.878;4.742;2024-02-21T00:22:43;9.60;99.90
10046;DHT22;5063;50.878;4.742;2024-02-21T00:25:09;9.50;99.90
10046;DHT22;5063;50.878;4.742;2024-02-21T00:27:35;9.50;99.90
10046;DHT22;5063;50.878;4.742;2024-02-21T00:30:02;9.60;99.90
10046;DHT22;5063;50.878;4.742;2024-02-21T00:32:28;9.60;99.90
10046;DHT22;5063;50.878;4.742;2024-02-21T00:34:54;9.60;99.90
10046;DHT22;5063;50.878;4.742;2024-02-21T00:37:20;9.60;99.90
10046;DHT22;5063;50.878;4.742;2024-02-21T00:39:45;9.60;99.90
10046;DHT22;5063;50.878;4.742;2024-02-21T00:42:11;9.60;99.90
10046;DHT22;5063;50.878;4.742;2024-02-21T00:44:37;9.60;99.90
10046;DHT22;5063;50.878;4.742;2024-02-21T00:47:03;9.60;99.90
10046;DHT22;5063;50.878;4.742;2024-02-21T00:49:28;9.70;99.90
10046;DHT22;5063;50.878;4.742;2024-02-21T00:51:54;9.70;99.90
10046;DHT22;5063;50.878;4.742;2024-02-21T00:54:20;9.60;99.90
10046;DHT22;5063;50.878;4.742;2024-02-21T00:56:46;9.70;99.90
10046;DHT22;5063;50.878;4.742;2024-02-21T00:59:12;9.70;99.90
10046;DHT22;5063;50.878;4.742;2024-02-21T01:01:37;9.60;99.90
10046;DHT22;5063;50.878;4.742;2024-02-21T01:04:06;9.60;99.90
10046;DHT22;5063;50.878;4.742;2024-02-21T01:06:31;9.50;99.90
10046;DHT22;5063;50.878;4.742;2024-02-21T01:08:57;9.70;99.90
10046;DHT22;5063;50.878;4.742;2024-02-21T01:11:23;9.60;99.90
10046;DHT22;5063;50.878;4.742;2024-02-21T01:13:49;9.80;99.90
10046;DHT22;5063;50.878;4.742;2024-02-21T01:16:14;9.70;99.90
10046;DHT22;5063;50.878;4.742;2024-02-21T01:18:40;9.70;99.90
10046;DHT22;5063;50.878;4.742;2024-02-21T01:21:07;9.60;99.90
10046;DHT22;5063;50.878;4.742;2024-02-21T01:23:36;9.60;99.90
10046;DHT22;5063;50.878;4.742;2024-02-21T01:26:03;9.60;99.90
10046;DHT22;5063;50.878;4.742;2024-02-21T01:28:29;9.60;99.90
10046;DHT22;5063;50.878;4.742;2024-02-21T01:30:56;9.70;99.90
10046;DHT22;5063;50.878;4.742;2024-02-21T01:33:22;9.60;99.90
10046;DHT22;5063;50.878;4.742;2024-02-21T01:35:48;9.60;99.90
10046;DHT22;5063;50.878;4.742;2024-02-21T01:38:15;9.60;99.90
10046;DHT22;5063;50.878;4.742;2024-02-21T01:40:41;9.60;99.90
10046;DHT22;5063;50.878;4.742;2024-02-21T01:43:19;9.60;99.90
10046;DHT22;5063;50.878;4.742;2024-02-21T01:45:50;9.60;99.90
10046;DHT22;5063;50.878;4.742;2024-02-21T01:48:18;9.60;99.90
10046;DHT22;5063;50.878;4.742;2024-02-21T01:50:45;9.50;99.90
10046;DHT22;5063;50.878;4.742;2024-02-21T01:53:29;9.50;99.90
10046;DHT22;5063;50.878;4.742;2024-02-21T01:55:55;9.50;99.90
10046;DHT22;5063;50.878;4.742;2024-02-21T01:58:22;9.50;99.90
10046;DHT22;5063;50.878;4.742;2024-02-21T02:00:48;9.50;99.90
10046;DHT22;5063;50.878;4.742;2024-02-21T02:03:15;9.50;99.90
10046;DHT22;5063;50.878;4.742;2024-02-21T02:05:48;9.50;99.90
10046;DHT22;5063;50.878;4.742;2024-02-21T02:08:18;9.50;99.90
10046;DHT22;5063;50.878;4.742;2024-02-21T02:10:44;9.40;99.90
10046;DHT22;5063;50.878;4.742;2024-02-21T02:13:11;9.40;99.90
10046;DHT22;5063;50.878;4.742;2024-02-21T02:15:50;9.60;99.90
10046;DHT22;5063;50.878;4.742;2024-02-21T02:18:17;9.50;99.90
10046;DHT22;5063;50.878;4.742;2024-02-21T02:20:44;9.50;99.90
10046;DHT22;5063;50.878;4.742;2024-02-21T02:25:43;9.50;99.90
10046;DHT22;5063;50.878;4.742;2024-02-21T02:28:09;9.50;99.90
10046;DHT22;5063;50.878;4.742;2024-02-21T02:30:35;9.40;99.90
10046;DHT22;5063;50.878;4.742;2024-02-21T02:33:03;9.40;99.90
10046;DHT22;5063;50.878;4.742;2024-02-21T02:35:29;9.40;99.90
10046;DHT22;5063;50.878;4.742;2024-02-21T02:37:54;9.40;99.90
10046;DHT22;5063;50.878;4.742;2024-02-21T02:40:20;9.40;99.90
10046;DHT22;5063;50.878;4.742;2024-02-21T02:42:46;9.40;99.90
10046;DHT22;5063;50.878;4.742;2024-02-21T02:45:14;9.40;99.90
10046;DHT22;5063;50.878;4.742;2024-02-21T02:47:40;9.40;99.90
10046;DHT22;5063;50.878;4.742;2024-02-21T02:50:07;9.30;99.90
10046;DHT22;5063;50.878;4.742;2024-02-21T02:52:33;9.40;99.90
10046;DHT22;5063;50.878;4.742;2024-02-21T02:54:59;9.40;99.90
10046;DHT22;5063;50.878;4.742;2024-02-21T02:57:25;9.40;99.90
10046;DHT22;5063;50.878;4.742;2024-02-21T02:59:51;9.40;99.90
10046;DHT22;5063;50.878;4.742;2024-02-21T03:02:17;9.50;99.90
10046;DHT22;5063;50.878;4.742;2024-02-21T03:04:43;9.40;99.90
10046;DHT22;5063;50.878;4.742;2024-02-21T03:07:09;9.40;99.90
10046;DHT22;5063;50.878;4.742;2024-02-21T03:09:38;9.40;99.90
10046;DHT22;5063;50.878;4.742;2024-02-21T03:12:06;9.40;99.90
10046;DHT22;5063;50.878;4.742;2024-02-21T03:14:32;9.50;99.90
10046;DHT22;5063;50.878;4.742;2024-02-21T03:16:58;9.50;99.90
10046;DHT22;5063;50.878;4.742;2024-02-21T03:19:25;9.50;99.90
10046;DHT22;5063;50.878;4.742;2024-02-21T03:21:51;9.50;99.90
10046;DHT22;5063;50.878;4.742;2024-02-21T03:24:18;9.40;99.90
10046;DHT22;5063;50.878;4.742;2024-02-21T03:26:44;9.40;99.90
10046;DHT22;5063;50.878;4.742;2024-02-21T03:29:10;9.40;99.90
10046;DHT22;5063;50.878;4.742;2024-02-21T03:31:37;9.40;99.90
10046;DHT22;5063;50.878;4.742;2024-02-21T03:34:03;9.30;99.90
10046;DHT22;5063;50.878;4.742;2024-02-21T03:36:29;9.30;99.90
10046;DHT22;5063;50.878;4.742;2024-02-21T03:38:54;9.30;99.90
10046;DHT22;5063;50.878;4.742;2024-02-21T03:41:20;9.30;99.90
10046;DHT22;5063;50.878;4.742;2024-02-21T03:43:46;9.40;99.90
10046;DHT22;5063;50.878;4.742;2024-02-21T03:46:12;9.40;99.90
10046;DHT22;5063;50.878;4.742;2024-02-21T03:48:38;9.40;99.90
10046;DHT22;5063;50.878;4.742;2024-02-21T03:51:04;8.90;99.90
10046;DHT22;5063;50.878;4.742;2024-02-21T03:53:30;9.40;99.90
10046;DHT22;5063;50.878;4.742;2024-02-21T03:55:56;9.40;99.90
10046;DHT22;5063;50.878;4.742;2024-02-21T03:58:22;9.50;99.90
10046;DHT22;5063;50.878;4.742;2024-02-21T04:00:48;9.40;99.90
10046;DHT22;5063;50.878;4.742;2024-02-21T04:03:13;9.40;99.90
10046;DHT22;5063;50.878;4.742;2024-02-21T04:05:39;9.40;99.90
10046;DHT22;5063;50.878;4.742;2024-02-21T04:08:05;9.40;99.90
10046;DHT22;5063;50.878;4.742;2024-02-21T04:10:31;9.40;99.90
10046;DHT22;5063;50.878;4.742;2024-02-21T04:12:57;9.40;99.90
10046;DHT22;5063;50.878;4.742;2024-02-21T04:15:23;9.40;99.90
10046;DHT22;5063;50.878;4.742;2024-02-21T04:17:48;9.50;99.90
10046;DHT22;5063;50.878;4.742;2024-02-21T04:20:15;9.50;99.90
10046;DHT22;5063;50.878;4.742;2024-02-21T04:22:44;9.50;99.90
10046;DHT22;5063;50.878;4.742;2024-02-21T04:25:10;9.40;99.90
10046;DHT22;5063;50.878;4.742;2024-02-21T04:27:39;9.30;99.90
10046;DHT22;5063;50.878;4.742;2024-02-21T04:30:06;9.40;99.90
10046;DHT22;5063;50.878;4.742;2024-02-21T04:32:32;9.40;99.90
10046;DHT22;5063;50.878;4.742;2024-02-21T04:34:58;9.30;99.90
10046;DHT22;5063;50.878;4.742;2024-02-21T04:37:24;9.40;99.90
10046;DHT22;5063;50.878;4.742;2024-02-21T04:39:50;9.40;99.90
10046;DHT22;5063;50.878;4.742;2024-02-21T04:42:16;9.40;99.90
10046;DHT22;5063;50.878;4.742;2024-02-21T04:44:42;9.40;99.90
10046;DHT22;5063;50.878;4.742;2024-02-21T04:47:08;9.40;99.90
10046;DHT22;5063;50.878;4.742;2024-02-21T04:49:34;9.40;99.90
10046;DHT22;5063;50.878;4.742;2024-02-21T04:52:00;9.40;99.90
10046;DHT22;5063;50.878;4.742;2024-02-21T04:54:26;9.40;99.90
10046;DHT22;5063;50.878;4.742;2024-02-21T04:56:52;9.40;99.90
10046;DHT22;5063;50.878;4.742;2024-02-21T04:59:18;9.40;99.90
10046;DHT22;5063;50.878;4.742;2024-02-21T05:01:44;9.50;99.90
10046;DHT22;5063;50.878;4.742;2024-02-21T05:04:09;9.40;99.90
10046;DHT22;5063;50.878;4.742;2024-02-21T05:06:39;9.40;99.90
10046;DHT22;5063;50.878;4.742;2024-02-21T05:09:06;9.40;99.90
10046;DHT22;5063;50.878;4.742;2024-02-21T05:11:32;9.40;99.90
10046;DHT22;5063;50.878;4.742;2024-02-21T05:13:57;9.40;99.90
10046;DHT22;5063;50.878;4.742;2024-02-21T05:16:23;9.40;99.90
10046;DHT22;5063;50.878;4.742;2024-02-21T05:18:49;9.40;99.90
10046;DHT22;5063;50.878;4.742;2024-02-21T05:21:14;9.40;99.90
10046;DHT22;5063;50.878;4.742;2024-02-21T05:23:40;9.50;99.90
10046;DHT22;5063;50.878;4.742;2024-02-21T05:26:06;9.50;99.90
10046;DHT22;5063;50.878;4.742;2024-02-21T05:28:32;9.40;99.90
10046;DHT22;5063;50.878;4.742;2024-02-21T05:30:58;9.40;99.90
10046;DHT22;5063;50.878;4.742;2024-02-21T05:33:24;9.50;99.90
10046;DHT22;5063;50.878;4.742;2024-02-21T05:35:50;9.50;99.90
10046;DHT22;5063;50.878;4.742;2024-02-21T05:38:16;9.40;99.90
10046;DHT22;5063;50.878;4.742;2024-02-21T05:40:42;9.40;99.90
10046;DHT22;5063;50.878;4.742;2024-02-21T05:43:08;9.40;99.90
10046;DHT22;5063;50.878;4.742;2024-02-21T05:45:34;9.40;99.90
10046;DHT22;5063;50.878;4.742;2024-02-21T05:48:00;9.50;99.90
10046;DHT22;5063;50.878;4.742;2024-02-21T05:50:26;9.50;99.90
10046;DHT22;5063;50.878;4.742;2024-02-21T05:52:54;9.50;99.90
10046;DHT22;5063;50.878;4.742;2024-02-21T05:55:21;9.50;99.90
10046;DHT22;5063;50.878;4.742;2024-02-21T05:57:47;9.50;99.90
10046;DHT22;5063;50.878;4.742;2024-02-21T06:00:13;9.50;99.90
10046;DHT22;5063;50.878;4.742;2024-02-21T06:02:39;9.50;99.90
10046;DHT22;5063;50.878;4.742;2024-02-21T06:05:06;9.50;99.90
10046;DHT22;5063;50.878;4.742;2024-02-21T06:07:35;9.40;99.90
10046;DHT22;5063;50.878;4.742;2024-02-21T06:10:02;9.40;99.90
10046;DHT22;5063;50.878;4.742;2024-02-21T06:12:27;9.50;99.90
10046;DHT22;5063;50.878;4.742;2024-02-21T06:14:53;9.70;99.90
10046;DHT22;5063;50.878;4.742;2024-02-21T06:17:19;9.70;99.90
10046;DHT22;5063;50.878;4.742;2024-02-21T06:19:45;9.70;99.90
10046;DHT22;5063;50.878;4.742;2024-02-21T06:22:11;9.70;99.90
10046;DHT22;5063;50.878;4.742;2024-02-21T06:24:37;9.60;99.90
10046;DHT22;5063;50.878;4.742;2024-02-21T06:27:06;9.60;99.90
10046;DHT22;5063;50.878;4.742;2024-02-21T06:29:32;9.60;99.90
10046;DHT22;5063;50.878;4.742;2024-02-21T06:31:59;9.50;99.90
10046;DHT22;5063;50.878;4.742;2024-02-21T06:34:24;9.50;99.90
10046;DHT22;5063;50.878;4.742;2024-02-21T06:36:51;9.50;99.90
10046;DHT22;5063;50.878;4.742;2024-02-21T06:39:16;9.50;99.90
10046;DHT22;5063;50.878;4.742;2024-02-21T06:41:42;9.50;99.90
10046;DHT22;5063;50.878;4.742;2024-02-21T06:44:08;9.50;99.90
10046;DHT22;5063;50.878;4.742;2024-02-21T06:46:34;9.50;99.90
10046;DHT22;5063;50.878;4.742;2024-02-21T06:49:02;9.50;99.90
10046;DHT22;5063;50.878;4.742;2024-02-21T06:51:28;9.40;99.90
10046;DHT22;5063;50.878;4.742;2024-02-21T06:53:54;9.50;99.90
10046;DHT22;5063;50.878;4.742;2024-02-21T06:56:20;9.40;99.90
10046;DHT22;5063;50.878;4.742;2024-02-21T06:58:46;9.40;99.90
10046;DHT22;5063;50.878;4.742;2024-02-21T07:01:12;9.20;99.90
10046;DHT22;5063;50.878;4.742;2024-02-21T07:03:38;9.40;99.90
10046;DHT22;5063;50.878;4.742;2024-02-21T07:06:04;9.40;99.90
10046;DHT22;5063;50.878;4.742;2024-02-21T07:08:30;9.30;99.90
10046;DHT22;5063;50.878;4.742;2024-02-21T07:10:55;9.20;99.90
10046;DHT22;5063;50.878;4.742;2024-02-21T07:13:21;9.20;99.90
10046;DHT22;5063;50.878;4.742;2024-02-21T07:15:48;9.20;99.90
10046;DHT22;5063;50.878;4.742;2024-02-21T07:18:14;9.20;99.90
10046;DHT22;5063;50.878;4.742;2024-02-21T07:20:39;9.30;99.90
10046;DHT22;5063;50.878;4.742;2024-02-21T07:23:08;9.20;99.90
10046;DHT22;5063;50.878;4.742;2024-02-21T07:25:33;9.30;99.90
10046;DHT22;5063;50.878;4.742;2024-02-21T07:27:59;9.30;99.90
10046;DHT22;5063;50.878;4.742;2024-02-21T07:30:25;9.30;99.90
10046;DHT22;5063;50.878;4.742;2024-02-21T07:32:50;9.30;99.90
10046;DHT22;5063;50.878;4.742;2024-02-21T07:35:17;9.40;99.90
10046;DHT22;5063;50.878;4.742;2024-02-21T07:37:43;9.30;99.90
10046;DHT22;5063;50.878;4.742;2024-02-21T07:40:13;9.20;99.90
10046;DHT22;5063;50.878;4.742;2024-02-21T07:42:39;9.20;99.90
10046;DHT22;5063;50.878;4.742;2024-02-21T07:45:07;9.30;99.90
10046;DHT22;5063;50.878;4.742;2024-02-21T07:47:32;9.30;99.90
10046;DHT22;5063;50.878;4.742;2024-02-21T07:49:58;9.30;99.90
10046;DHT22;5063;50.878;4.742;2024-02-21T07:52:24;9.20;99.90
10046;DHT22;5063;50.878;4.742;2024-02-21T07:54:50;9.20;99.90
10046;DHT22;5063;50.878;4.742;2024-02-21T07:57:16;9.20;99.90
10046;DHT22;5063;50.878;4.742;2024-02-21T07:59:42;9.10;99.90
10046;DHT22;5063;50.878;4.742;2024-02-21T08:02:08;9.30;99.90
10046;DHT22;5063;50.878;4.742;2024-02-21T08:04:34;9.30;99.90
10046;DHT22;5063;50.878;4.742;2024-02-21T08:07:00;9.40;99.90
10046;DHT22;5063;50.878;4.742;2024-02-21T08:09:28;9.40;99.90
10046;DHT22;5063;50.878;4.742;2024-02-21T08:11:54;9.20;99.90
10046;DHT22;5063;50.878;4.742;2024-02-21T08:14:21;9.40;99.90
10046;DHT22;5063;50.878;4.742;2024-02-21T08:16:47;9.50;99.90
10046;DHT22;5063;50.878;4.742;2024-02-21T08:19:12;9.40;99.90
10046;DHT22;5063;50.878;4.742;2024-02-21T08:21:38;9.50;99.90
10046;DHT22;5063;50.878;4.742;2024-02-21T08:24:04;9.70;99.90
10046;DHT22;5063;50.878;4.742;2024-02-21T08:26:30;9.60;99.90
10046;DHT22;5063;50.878;4.742;2024-02-21T08:28:57;9.60;99.90
10046;DHT22;5063;50.878;4.742;2024-02-21T08:31:26;9.60;99.90
10046;DHT22;5063;50.878;4.742;2024-02-21T08:34:01;9.60;99.90
10046;DHT22;5063;50.878;4.742;2024-02-21T08:36:34;9.70;99.90
10046;DHT22;5063;50.878;4.742;2024-02-21T08:39:01;9.80;99.90
10046;DHT22;5063;50.878;4.742;2024-02-21T08:41:33;9.90;99.90
10046;DHT22;5063;50.878;4.742;2024-02-21T08:43:59;9.80;99.90
10046;DHT22;5063;50.878;4.742;2024-02-21T08:46:25;9.80;99.90
10046;DHT22;5063;50.878;4.742;2024-02-21T08:48:52;9.90;99.90
10046;DHT22;5063;50.878;4.742;2024-02-21T08:51:18;9.80;99.90
10046;DHT22;5063;50.878;4.742;2024-02-21T08:53:47;9.90;99.90
10046;DHT22;5063;50.878;4.742;2024-02-21T08:56:13;9.90;99.90
10046;DHT22;5063;50.878;4.742;2024-02-21T08:58:40;10.00;99.90
10046;DHT22;5063;50.878;4.742;2024-02-21T09:01:07;10.10;99.90
10046;DHT22;5063;50.878;4.742;2024-02-21T09:03:36;10.00;99.90
10046;DHT22;5063;50.878;4.742;2024-02-21T09:06:07;10.00;99.90
10046;DHT22;5063;50.878;4.742;2024-02-21T09:08:33;10.10;99.90
10046;DHT22;5063;50.878;4.742;2024-02-21T09:11:02;10.20;99.90
10046;DHT22;5063;50.878;4.742;2024-02-21T09:13:28;10.10;99.90
10046;DHT22;5063;50.878;4.742;2024-02-21T09:15:55;10.10;99.90
10046;DHT22;5063;50.878;4.742;2024-02-21T09:18:21;10.10;99.90
10046;DHT22;5063;50.878;4.742;2024-02-21T09:20:47;10.20;99.90
10046;DHT22;5063;50.878;4.742;2024-02-21T09:23:13;10.30;99.90
10046;DHT22;5063;50.878;4.742;2024-02-21T09:25:39;10.50;99.90
10046;DHT22;5063;50.878;4.742;2024-02-21T09:28:05;10.50;99.90
10046;DHT22;5063;50.878;4.742;2024-02-21T09:30:31;10.60;99.90
10046;DHT22;5063;50.878;4.742;2024-02-21T09:32:57;10.80;99.90
10046;DHT22;5063;50.878;4.742;2024-02-21T09:35:27;10.80;99.90
10046;DHT22;5063;50.878;4.742;2024-02-21T09:37:53;10.90;99.90
10046;DHT22;5063;50.878;4.742;2024-02-21T09:40:20;11.00;99.90
10046;DHT22;5063;50.878;4.742;2024-02-21T09:42:47;10.90;99.90
10046;DHT22;5063;50.878;4.742;2024-02-21T09:45:23;11.00;99.90
10046;DHT22;5063;50.878;4.742;2024-02-21T09:51:07;11.30;99.90
10046;DHT22;5063;50.878;4.742;2024-02-21T09:53:37;11.50;99.90
10046;DHT22;5063;50.878;4.742;2024-02-21T09:56:05;11.50;99.90
10046;DHT22;5063;50.878;4.742;2024-02-21T09:58:33;11.60;99.90
10046;DHT22;5063;50.878;4.742;2024-02-21T10:00:59;11.50;99.90
10046;DHT22;5063;50.878;4.742;2024-02-21T10:03:26;11.70;99.90
10046;DHT22;5063;50.878;4.742;2024-02-21T10:05:51;11.80;99.90
10046;DHT22;5063;50.878;4.742;2024-02-21T10:08:18;11.90;99.90
10046;DHT22;5063;50.878;4.742;2024-02-21T10:10:46;11.80;99.90
10046;DHT22;5063;50.878;4.742;2024-02-21T10:13:32;11.70;99.90
10046;DHT22;5063;50.878;4.742;2024-02-21T10:16:16;11.80;99.90
10046;DHT22;5063;50.878;4.742;2024-02-21T10:18:41;11.80;99.90
10046;DHT22;5063;50.878;4.742;2024-02-21T10:21:07;11.80;99.90
10046;DHT22;5063;50.878;4.742;2024-02-21T10:23:52;11.70;99.90
10046;DHT22;5063;50.878;4.742;2024-02-21T10:26:19;11.70;99.90
10046;DHT22;5063;50.878;4.742;2024-02-21T10:28:45;11.80;99.90
10046;DHT22;5063;50.878;4.742;2024-02-21T10:31:25;11.90;99.90
10046;DHT22;5063;50.878;4.742;2024-02-21T10:33:58;11.80;99.90
10046;DHT22;5063;50.878;4.742;2024-02-21T10:36:24;11.80;99.90
10046;DHT22;5063;50.878;4.742;2024-02-21T10:38:53;11.70;99.90
10046;DHT22;5063;50.878;4.742;2024-02-21T10:41:20;11.70;99.90
10046;DHT22;5063;50.878;4.742;2024-02-21T10:43:53;11.80;99.90
10046;DHT22;5063;50.878;4.742;2024-02-21T10:46:21;11.90;99.90
10046;DHT22;5063;50.878;4.742;2024-02-21T10:48:48;12.00;99.90
10046;DHT22;5063;50.878;4.742;2024-02-21T10:51:27;12.10;99.90
10046;DHT22;5063;50.878;4.742;2024-02-21T10:56:34;12.20;99.90
10046;DHT22;5063;50.878;4.742;2024-02-21T10:59:04;12.30;99.90
10046;DHT22;5063;50.878;4.742;2024-02-21T11:01:30;12.50;99.90
10046;DHT22;5063;50.878;4.742;2024-02-21T11:04:08;12.30;99.90
10046;DHT22;5063;50.878;4.742;2024-02-21T11:06:37;12.40;99.90
10046;DHT22;5063;50.878;4.742;2024-02-21T11:09:08;12.50;99.90
10046;DHT22;5063;50.878;4.742;2024-02-21T11:11:41;12.50;99.90
10046;DHT22;5063;50.878;4.742;2024-02-21T11:14:27;12.60;99.90
10046;DHT22;5063;50.878;4.742;2024-02-21T11:16:53;12.60;99.90
10046;DHT22;5063;50.878;4.742;2024-02-21T11:19:22;12.60;99.90
10046;DHT22;5063;50.878;4.742;2024-02-21T11:21:49;12.50;99.90
10046;DHT22;5063;50.878;4.742;2024-02-21T11:24:32;12.30;99.90
10046;DHT22;5063;50.878;4.742;2024-02-21T11:27:27;12.40;99.90
10046;DHT22;5063;50.878;4.742;2024-02-21T11:29:57;12.60;99.90
10046;DHT22;5063;50.878;4.742;2024-02-21T11:32:25;12.50;99.90
10046;DHT22;5063;50.878;4.742;2024-02-21T11:35:00;12.50;99.90
10046;DHT22;5063;50.878;4.742;2024-02-21T11:37:34;12.60;99.90
10046;DHT22;5063;50.878;4.742;2024-02-21T11:40:02;12.60;99.90
10046;DHT22;5063;50.878;4.742;2024-02-21T11:42:29;12.50;99.90
10046;DHT22;5063;50.878;4.742;2024-02-21T11:45:00;12.50;99.90
10046;DHT22;5063;50.878;4.742;2024-02-21T11:47:28;12.60;99.90
10046;DHT22;5063;50.878;4.742;2024-02-21T11:49:54;12.10;99.90
10046;DHT22;5063;50.878;4.742;2024-02-21T11:52:26;12.20;99.90
10046;DHT22;5063;50.878;4.742;2024-02-21T11:54:53;12.20;99.90
10046;DHT22;5063;50.878;4.742;2024-02-21T11:57:20;12.30;99.90
10046;DHT22;5063;50.878;4.742;2024-02-21T11:59:46;12.30;99.90
10046;DHT22;5063;50.878;4.742;2024-02-21T12:02:12;12.40;99.90
10046;DHT22;5063;50.878;4.742;2024-02-21T12:04:38;12.30;99.90
10046;DHT22;5063;50.878;4.742;2024-02-21T12:07:04;12.40;99.90
10046;DHT22;5063;50.878;4.742;2024-02-21T12:09:30;12.40;99.90
10046;DHT22;5063;50.878;4.742;2024-02-21T12:12:04;12.20;99.90
10046;DHT22;5063;50.878;4.742;2024-02-21T12:14:31;12.20;99.90
10046;DHT22;5063;50.878;4.742;2024-02-21T12:17:01;12.20;99.90
10046;DHT22;5063;50.878;4.742;2024-02-21T12:19:30;12.30;99.90
10046;DHT22;5063;50.878;4.742;2024-02-21T12:21:58;12.40;99.90
10046;DHT22;5063;50.878;4.742;2024-02-21T12:24:26;12.30;99.90
10046;DHT22;5063;50.878;4.742;2024-02-21T12:26:56;12.30;99.90
10046;DHT22;5063;50.878;4.742;2024-02-21T12:29:23;12.30;99.90
10046;DHT22;5063;50.878;4.742;2024-02-21T12:31:52;12.20;99.90
10046;DHT22;5063;50.878;4.742;2024-02-21T12:34:20;12.10;99.90
10046;DHT22;5063;50.878;4.742;2024-02-21T12:36:47;12.20;99.90
10046;DHT22;5063;50.878;4.742;2024-02-21T12:39:13;12.20;99.90
10046;DHT22;5063;50.878;4.742;2024-02-21T12:41:39;12.10;99.90
10046;DHT22;5063;50.878;4.742;2024-02-21T12:44:09;12.00;99.90
10046;DHT22;5063;50.878;4.742;2024-02-21T12:46:37;11.90;99.90
10046;DHT22;5063;50.878;4.742;2024-02-21T12:49:03;11.90;99.90
10046;DHT22;5063;50.878;4.742;2024-02-21T12:51:30;12.00;99.90
10046;DHT22;5063;50.878;4.742;2024-02-21T12:53:56;11.90;99.90
10046;DHT22;5063;50.878;4.742;2024-02-21T12:56:22;12.00;99.90
10046;DHT22;5063;50.878;4.742;2024-02-21T12:58:48;12.00;99.90
10046;DHT22;5063;50.878;4.742;2024-02-21T13:01:13;12.10;99.90
10046;DHT22;5063;50.878;4.742;2024-02-21T13:03:39;12.10;99.90
10046;DHT22;5063;50.878;4.742;2024-02-21T13:06:05;12.00;99.90
10046;DHT22;5063;50.878;4.742;2024-02-21T13:08:36;12.00;99.90
10046;DHT22;5063;50.878;4.742;2024-02-21T13:11:02;12.00;99.90
10046;DHT22;5063;50.878;4.742;2024-02-21T13:13:28;12.10;99.90
10046;DHT22;5063;50.878;4.742;2024-02-21T13:15:53;12.10;99.90
10046;DHT22;5063;50.878;4.742;2024-02-21T13:18:19;12.10;99.90
10046;DHT22;5063;50.878;4.742;2024-02-21T13:20:45;12.20;99.90
10046;DHT22;5063;50.878;4.742;2024-02-21T13:23:10;12.20;99.90
10046;DHT22;5063;50.878;4.742;2024-02-21T13:25:36;12.30;99.90
10046;DHT22;5063;50.878;4.742;2024-02-21T13:28:02;12.40;99.90
10046;DHT22;5063;50.878;4.742;2024-02-21T13:30:29;12.20;99.90
10046;DHT22;5063;50.878;4.742;2024-02-21T13:32:54;12.10;99.90
10046;DHT22;5063;50.878;4.742;2024-02-21T13:35:20;12.20;99.90
10046;DHT22;5063;50.878;4.742;2024-02-21T13:37:46;12.20;99.90
10046;DHT22;5063;50.878;4.742;2024-02-21T13:40:12;12.10;99.90
10046;DHT22;5063;50.878;4.742;2024-02-21T13:42:40;12.00;99.90
10046;DHT22;5063;50.878;4.742;2024-02-21T13:45:07;12.10;99.90
10046;DHT22;5063;50.878;4.742;2024-02-21T13:47:33;12.20;99.90
10046;DHT22;5063;50.878;4.742;2024-02-21T13:49:59;12.10;99.90
10046;DHT22;5063;50.878;4.742;2024-02-21T13:52:25;12.10;99.90
10046;DHT22;5063;50.878;4.742;2024-02-21T13:54:53;11.90;99.90
10046;DHT22;5063;50.878;4.742;2024-02-21T13:57:19;11.90;99.90
10046;DHT22;5063;50.878;4.742;2024-02-21T13:59:45;12.00;99.90
10046;DHT22;5063;50.878;4.742;2024-02-21T14:02:11;11.80;99.90
10046;DHT22;5063;50.878;4.742;2024-02-21T14:04:37;11.70;99.90
10046;DHT22;5063;50.878;4.742;2024-02-21T14:07:03;11.60;99.90
10046;DHT22;5063;50.878;4.742;2024-02-21T14:09:28;11.60;99.90
10046;DHT22;5063;50.878;4.742;2024-02-21T14:12:00;11.50;99.90
10046;DHT22;5063;50.878;4.742;2024-02-21T14:14:26;11.40;99.90
10046;DHT22;5063;50.878;4.742;2024-02-21T14:16:52;11.30;99.90
10046;DHT22;5063;50.878;4.742;2024-02-21T14:19:17;11.20;99.90
10046;DHT22;5063;50.878;4.742;2024-02-21T14:21:44;11.10;99.90
10046;DHT22;5063;50.878;4.742;2024-02-21T14:24:11;10.90;99.90
10046;DHT22;5063;50.878;4.742;2024-02-21T14:26:38;10.90;99.90
10046;DHT22;5063;50.878;4.742;2024-02-21T14:29:04;10.90;99.90
10046;DHT22;5063;50.878;4.742;2024-02-21T14:31:31;11.10;99.90
10046;DHT22;5063;50.878;4.742;2024-02-21T14:33:58;10.90;99.90
10046;DHT22;5063;50.878;4.742;2024-02-21T14:36:23;10.80;99.90
10046;DHT22;5063;50.878;4.742;2024-02-21T14:38:49;10.70;99.90
10046;DHT22;5063;50.878;4.742;2024-02-21T14:41:15;10.70;99.90
10046;DHT22;5063;50.878;4.742;2024-02-21T14:43:40;10.70;99.90
10046;DHT22;5063;50.878;4.742;2024-02-21T14:46:07;10.80;99.90
10046;DHT22;5063;50.878;4.742;2024-02-21T14:48:32;10.70;99.90
10046;DHT22;5063;50.878;4.742;2024-02-21T14:50:58;10.60;99.90
10046;DHT22;5063;50.878;4.742;2024-02-21T14:53:24;10.60;99.90
10046;DHT22;5063;50.878;4.742;2024-02-21T14:55:50;10.60;99.90
10046;DHT22;5063;50.878;4.742;2024-02-21T14:58:19;10.60;99.90
10046;DHT22;5063;50.878;4.742;2024-02-21T15:00:45;10.60;99.90
10046;DHT22;5063;50.878;4.742;2024-02-21T15:03:12;10.50;99.90
10046;DHT22;5063;50.878;4.742;2024-02-21T15:05:41;10.40;99.90
10046;DHT22;5063;50.878;4.742;2024-02-21T15:08:07;10.40;99.90
10046;DHT22;5063;50.878;4.742;2024-02-21T15:10:34;10.40;99.90
10046;DHT22;5063;50.878;4.742;2024-02-21T15:13:00;10.30;99.90
10046;DHT22;5063;50.878;4.742;2024-02-21T15:15:26;10.30;99.90
10046;DHT22;5063;50.878;4.742;2024-02-21T15:17:52;10.30;99.90
10046;DHT22;5063;50.878;4.742;2024-02-21T15:20:17;10.20;99.90
10046;DHT22;5063;50.878;4.742;2024-02-21T15:22:43;10.20;99.90
10046;DHT22;5063;50.878;4.742;2024-02-21T15:25:09;10.20;99.90
10046;DHT22;5063;50.878;4.742;2024-02-21T15:27:41;10.20;99.90
10046;DHT22;5063;50.878;4.742;2024-02-21T15:30:09;10.10;99.90
10046;DHT22;5063;50.878;4.742;2024-02-21T15:32:35;10.10;99.90
10046;DHT22;5063;50.878;4.742;2024-02-21T15:35:03;10.10;99.90
10046;DHT22;5063;50.878;4.742;2024-02-21T15:37:30;10.30;99.90
10046;DHT22;5063;50.878;4.742;2024-02-21T15:39:56;9.90;99.90
10046;DHT22;5063;50.878;4.742;2024-02-21T15:42:22;10.00;99.90
10046;DHT22;5063;50.878;4.742;2024-02-21T15:44:47;10.00;99.90
10046;DHT22;5063;50.878;4.742;2024-02-21T15:47:13;10.00;99.90
10046;DHT22;5063;50.878;4.742;2024-02-21T15:49:40;9.90;99.90
10046;DHT22;5063;50.878;4.742;2024-02-21T15:52:07;9.90;99.90
10046;DHT22;5063;50.878;4.742;2024-02-21T15:54:32;9.90;99.90
10046;DHT22;5063;50.878;4.742;2024-02-21T15:56:58;9.80;99.90
10046;DHT22;5063;50.878;4.742;2024-02-21T15:59:24;9.80;99.90
10046;DHT22;5063;50.878;4.742;2024-02-21T16:01:50;9.80;99.90